sensor_id;sensor_type;location;lat;lon;timestamp;P1;durP1;ratioP1;P2;durP2;ratioP2
40781;SDS011;26493;51.938;7.626;2023-04-24T00:02:16;14.30;;;7.82;;
40781;SDS011;26493;51.938;7.626;2023-04-24T00:04:42;13.88;;;7.85;;
40781;SDS011;26493;51.938;7.626;2023-04-24T00:07:11;16.02;;;8.48;;
40781;SDS011;26493;51.938;7.626;2023-04-24T00:09:44;13.85;;;7.70;;
40781;SDS011;26493;51.938;7.626;2023-04-24T00:12:11;13.82;;;7.43;;
40781;SDS011;26493;51.938;7.626;2023-04-24T00:14:37;15.35;;;7.90;;
40781;SDS011;26493;51.938;7.626;2023-04-24T00:17:03;14.20;;;7.43;;
40781;SDS011;26493;51.938;7.626;2023-04-24T00:19:29;14.85;;;7.40;;
40781;SDS011;26493;51.938;7.626;2023-04-24T00:21:55;13.75;;;6.97;;
40781;SDS011;26493;51.938;7.626;2023-04-24T00:24:21;13.38;;;7.47;;
40781;SDS011;26493;51.938;7.626;2023-04-24T00:26:47;13.23;;;7.30;;
40781;SDS011;26493;51.938;7.626;2023-04-24T00:29:13;13.23;;;7.32;;
40781;SDS011;26493;51.938;7.626;2023-04-24T00:31:39;13.63;;;7.32;;
40781;SDS011;26493;51.938;7.626;2023-04-24T00:34:05;12.95;;;7.30;;
40781;SDS011;26493;51.938;7.626;2023-04-24T00:36:32;13.57;;;7.47;;
40781;SDS011;26493;51.938;7.626;2023-04-24T00:38:58;14.80;;;7.70;;
40781;SDS011;26493;51.938;7.626;2023-04-24T00:41:25;13.75;;;7.22;;
40781;SDS011;26493;51.938;7.626;2023-04-24T00:43:51;13.48;;;6.95;;
40781;SDS011;26493;51.938;7.626;2023-04-24T00:46:17;14.32;;;7.45;;
40781;SDS011;26493;51.938;7.626;2023-04-24T00:48:44;15.70;;;7.68;;
40781;SDS011;26493;51.938;7.626;2023-04-24T00:51:10;13.13;;;6.85;;
40781;SDS011;26493;51.938;7.626;2023-04-24T00:53:36;13.45;;;7.07;;
40781;SDS011;26493;51.938;7.626;2023-04-24T00:56:02;13.77;;;7.50;;
40781;SDS011;26493;51.938;7.626;2023-04-24T00:58:28;12.43;;;6.80;;
40781;SDS011;26493;51.938;7.626;2023-04-24T01:00:56;14.50;;;7.07;;
40781;SDS011;26493;51.938;7.626;2023-04-24T01:03:24;12.50;;;6.80;;
40781;SDS011;26493;51.938;7.626;2023-04-24T01:05:52;13.75;;;7.30;;
40781;SDS011;26493;51.938;7.626;2023-04-24T01:08:19;14.20;;;7.40;;
40781;SDS011;26493;51.938;7.626;2023-04-24T01:10:46;14.57;;;7.20;;
40781;SDS011;26493;51.938;7.626;2023-04-24T01:13:13;13.52;;;7.15;;
40781;SDS011;26493;51.938;7.626;2023-04-24T01:15:39;13.07;;;7.28;;
40781;SDS011;26493;51.938;7.626;2023-04-24T01:18:05;15.15;;;8.18;;
40781;SDS011;26493;51.938;7.626;2023-04-24T01:20:31;14.73;;;7.60;;
40781;SDS011;26493;51.938;7.626;2023-04-24T01:22:58;15.10;;;7.38;;
40781;SDS011;26493;51.938;7.626;2023-04-24T01:25:24;14.63;;;7.75;;
40781;SDS011;26493;51.938;7.626;2023-04-24T01:27:51;12.80;;;7.20;;
40781;SDS011;26493;51.938;7.626;2023-04-24T01:30:17;14.45;;;7.50;;
40781;SDS011;26493;51.938;7.626;2023-04-24T01:32:43;12.95;;;7.05;;
40781;SDS011;26493;51.938;7.626;2023-04-24T01:35:10;12.75;;;6.93;;
40781;SDS011;26493;51.938;7.626;2023-04-24T01:37:36;13.20;;;7.40;;
40781;SDS011;26493;51.938;7.626;2023-04-24T01:40:03;13.65;;;7.35;;
40781;SDS011;26493;51.938;7.626;2023-04-24T01:42:30;13.77;;;7.55;;
40781;SDS011;26493;51.938;7.626;2023-04-24T01:44:56;13.48;;;7.43;;
40781;SDS011;26493;51.938;7.626;2023-04-24T01:47:22;14.25;;;7.22;;
40781;SDS011;26493;51.938;7.626;2023-04-24T01:49:49;15.02;;;7.28;;
40781;SDS011;26493;51.938;7.626;2023-04-24T01:52:15;13.73;;;7.68;;
40781;SDS011;26493;51.938;7.626;2023-04-24T01:54:42;13.68;;;7.32;;
40781;SDS011;26493;51.938;7.626;2023-04-24T01:57:08;13.73;;;7.10;;
40781;SDS011;26493;51.938;7.626;2023-04-24T01:59:35;14.75;;;7.40;;
40781;SDS011;26493;51.938;7.626;2023-04-24T02:02:01;13.90;;;7.93;;
40781;SDS011;26493;51.938;7.626;2023-04-24T02:04:27;14.02;;;8.10;;
40781;SDS011;26493;51.938;7.626;2023-04-24T02:06:53;14.02;;;8.05;;
40781;SDS011;26493;51.938;7.626;2023-04-24T02:09:19;16.25;;;8.18;;
40781;SDS011;26493;51.938;7.626;2023-04-24T02:11:45;15.70;;;8.68;;
40781;SDS011;26493;51.938;7.626;2023-04-24T02:14:11;15.75;;;8.75;;
40781;SDS011;26493;51.938;7.626;2023-04-24T02:16:38;15.10;;;8.60;;
40781;SDS011;26493;51.938;7.626;2023-04-24T02:19:04;15.93;;;9.10;;
40781;SDS011;26493;51.938;7.626;2023-04-24T02:21:30;14.60;;;8.65;;
40781;SDS011;26493;51.938;7.626;2023-04-24T02:23:56;14.63;;;8.32;;
40781;SDS011;26493;51.938;7.626;2023-04-24T02:26:23;15.43;;;8.55;;
40781;SDS011;26493;51.938;7.626;2023-04-24T02:28:49;14.57;;;8.07;;
40781;SDS011;26493;51.938;7.626;2023-04-24T02:31:15;15.20;;;8.32;;
40781;SDS011;26493;51.938;7.626;2023-04-24T02:33:41;14.65;;;7.82;;
40781;SDS011;26493;51.938;7.626;2023-04-24T02:36:07;15.25;;;8.38;;
40781;SDS011;26493;51.938;7.626;2023-04-24T02:38:33;15.75;;;8.82;;
40781;SDS011;26493;51.938;7.626;2023-04-24T02:40:59;15.32;;;8.82;;
40781;SDS011;26493;51.938;7.626;2023-04-24T02:43:25;16.15;;;8.68;;
40781;SDS011;26493;51.938;7.626;2023-04-24T02:45:51;15.32;;;8.80;;
40781;SDS011;26493;51.938;7.626;2023-04-24T02:48:17;15.65;;;8.40;;
40781;SDS011;26493;51.938;7.626;2023-04-24T02:50:45;16.15;;;9.40;;
40781;SDS011;26493;51.938;7.626;2023-04-24T02:53:11;15.50;;;9.70;;
40781;SDS011;26493;51.938;7.626;2023-04-24T02:55:37;16.75;;;9.63;;
40781;SDS011;26493;51.938;7.626;2023-04-24T02:58:03;16.55;;;9.55;;
40781;SDS011;26493;51.938;7.626;2023-04-24T03:00:30;16.25;;;9.48;;
40781;SDS011;26493;51.938;7.626;2023-04-24T03:02:56;17.17;;;9.98;;
40781;SDS011;26493;51.938;7.626;2023-04-24T03:05:22;16.17;;;9.65;;
40781;SDS011;26493;51.938;7.626;2023-04-24T03:07:48;16.80;;;10.20;;
40781;SDS011;26493;51.938;7.626;2023-04-24T03:10:14;16.60;;;10.85;;
40781;SDS011;26493;51.938;7.626;2023-04-24T03:12:40;18.38;;;11.40;;
40781;SDS011;26493;51.938;7.626;2023-04-24T03:15:06;17.60;;;11.65;;
40781;SDS011;26493;51.938;7.626;2023-04-24T03:17:33;17.85;;;12.45;;
40781;SDS011;26493;51.938;7.626;2023-04-24T03:19:58;18.83;;;11.70;;
40781;SDS011;26493;51.938;7.626;2023-04-24T03:22:24;18.30;;;11.82;;
40781;SDS011;26493;51.938;7.626;2023-04-24T03:24:50;19.15;;;12.65;;
40781;SDS011;26493;51.938;7.626;2023-04-24T03:27:17;18.67;;;12.50;;
40781;SDS011;26493;51.938;7.626;2023-04-24T03:29:43;17.52;;;11.98;;
40781;SDS011;26493;51.938;7.626;2023-04-24T03:32:08;21.73;;;12.90;;
40781;SDS011;26493;51.938;7.626;2023-04-24T03:34:35;17.88;;;11.85;;
40781;SDS011;26493;51.938;7.626;2023-04-24T03:37:01;19.25;;;13.00;;
40781;SDS011;26493;51.938;7.626;2023-04-24T03:39:27;19.60;;;12.70;;
40781;SDS011;26493;51.938;7.626;2023-04-24T03:41:53;20.13;;;12.70;;
40781;SDS011;26493;51.938;7.626;2023-04-24T03:44:19;19.42;;;12.73;;
40781;SDS011;26493;51.938;7.626;2023-04-24T03:46:45;20.15;;;13.32;;
40781;SDS011;26493;51.938;7.626;2023-04-24T03:49:11;20.27;;;14.18;;
40781;SDS011;26493;51.938;7.626;2023-04-24T03:51:37;20.02;;;15.50;;
40781;SDS011;26493;51.938;7.626;2023-04-24T03:54:03;22.80;;;15.85;;
40781;SDS011;26493;51.938;7.626;2023-04-24T03:56:29;21.58;;;15.98;;
40781;SDS011;26493;51.938;7.626;2023-04-24T03:58:55;22.70;;;16.98;;
40781;SDS011;26493;51.938;7.626;2023-04-24T04:01:21;23.00;;;16.80;;
40781;SDS011;26493;51.938;7.626;2023-04-24T04:03:48;23.23;;;17.02;;
40781;SDS011;26493;51.938;7.626;2023-04-24T04:06:14;22.83;;;16.52;;
40781;SDS011;26493;51.938;7.626;2023-04-24T04:08:40;26.20;;;17.40;;
40781;SDS011;26493;51.938;7.626;2023-04-24T04:11:06;25.45;;;16.67;;
40781;SDS011;26493;51.938;7.626;2023-04-24T04:13:31;25.65;;;17.88;;
40781;SDS011;26493;51.938;7.626;2023-04-24T04:15:57;25.05;;;17.45;;
40781;SDS011;26493;51.938;7.626;2023-04-24T04:18:23;25.40;;;17.38;;
40781;SDS011;26493;51.938;7.626;2023-04-24T04:20:49;24.35;;;18.88;;
40781;SDS011;26493;51.938;7.626;2023-04-24T04:23:15;23.52;;;17.98;;
40781;SDS011;26493;51.938;7.626;2023-04-24T04:25:41;26.67;;;18.58;;
40781;SDS011;26493;51.938;7.626;2023-04-24T04:28:07;24.90;;;17.63;;
40781;SDS011;26493;51.938;7.626;2023-04-24T04:30:33;33.45;;;18.08;;
40781;SDS011;26493;51.938;7.626;2023-04-24T04:32:59;25.13;;;19.10;;
40781;SDS011;26493;51.938;7.626;2023-04-24T04:35:26;24.45;;;17.80;;
40781;SDS011;26493;51.938;7.626;2023-04-24T04:37:52;29.67;;;19.15;;
40781;SDS011;26493;51.938;7.626;2023-04-24T04:40:18;26.65;;;18.25;;
40781;SDS011;26493;51.938;7.626;2023-04-24T04:42:44;26.60;;;18.58;;
40781;SDS011;26493;51.938;7.626;2023-04-24T04:45:11;25.77;;;18.65;;
40781;SDS011;26493;51.938;7.626;2023-04-24T04:47:37;29.80;;;19.23;;
40781;SDS011;26493;51.938;7.626;2023-04-24T04:50:04;29.00;;;20.15;;
40781;SDS011;26493;51.938;7.626;2023-04-24T04:52:30;29.60;;;19.92;;
40781;SDS011;26493;51.938;7.626;2023-04-24T04:54:56;27.92;;;18.80;;
40781;SDS011;26493;51.938;7.626;2023-04-24T04:57:22;28.75;;;18.67;;
40781;SDS011;26493;51.938;7.626;2023-04-24T04:59:48;27.10;;;18.98;;
40781;SDS011;26493;51.938;7.626;2023-04-24T05:02:14;28.38;;;20.40;;
40781;SDS011;26493;51.938;7.626;2023-04-24T05:04:40;31.58;;;20.77;;
40781;SDS011;26493;51.938;7.626;2023-04-24T05:07:06;31.60;;;20.10;;
40781;SDS011;26493;51.938;7.626;2023-04-24T05:09:32;25.38;;;19.50;;
40781;SDS011;26493;51.938;7.626;2023-04-24T05:11:58;27.10;;;20.30;;
40781;SDS011;26493;51.938;7.626;2023-04-24T05:14:24;28.38;;;19.80;;
40781;SDS011;26493;51.938;7.626;2023-04-24T05:16:50;27.58;;;19.77;;
40781;SDS011;26493;51.938;7.626;2023-04-24T05:19:16;30.73;;;20.25;;
40781;SDS011;26493;51.938;7.626;2023-04-24T05:21:42;27.50;;;19.63;;
40781;SDS011;26493;51.938;7.626;2023-04-24T05:24:08;27.05;;;18.75;;
40781;SDS011;26493;51.938;7.626;2023-04-24T05:26:34;26.83;;;19.33;;
40781;SDS011;26493;51.938;7.626;2023-04-24T05:29:00;28.60;;;19.45;;
40781;SDS011;26493;51.938;7.626;2023-04-24T05:31:27;30.90;;;20.33;;
40781;SDS011;26493;51.938;7.626;2023-04-24T05:33:53;34.67;;;19.33;;
40781;SDS011;26493;51.938;7.626;2023-04-24T05:36:19;28.67;;;18.88;;
40781;SDS011;26493;51.938;7.626;2023-04-24T05:38:45;30.02;;;19.30;;
40781;SDS011;26493;51.938;7.626;2023-04-24T05:41:11;26.80;;;18.88;;
40781;SDS011;26493;51.938;7.626;2023-04-24T05:43:37;27.42;;;18.35;;
40781;SDS011;26493;51.938;7.626;2023-04-24T05:46:03;29.75;;;19.67;;
40781;SDS011;26493;51.938;7.626;2023-04-24T05:48:29;28.02;;;19.95;;
40781;SDS011;26493;51.938;7.626;2023-04-24T05:50:55;27.65;;;18.40;;
40781;SDS011;26493;51.938;7.626;2023-04-24T05:53:21;26.88;;;17.48;;
40781;SDS011;26493;51.938;7.626;2023-04-24T05:55:47;28.73;;;17.85;;
40781;SDS011;26493;51.938;7.626;2023-04-24T05:58:14;28.30;;;19.58;;
40781;SDS011;26493;51.938;7.626;2023-04-24T06:00:40;28.63;;;18.13;;
40781;SDS011;26493;51.938;7.626;2023-04-24T06:03:07;24.77;;;17.48;;
40781;SDS011;26493;51.938;7.626;2023-04-24T06:05:33;26.05;;;17.77;;
40781;SDS011;26493;51.938;7.626;2023-04-24T06:08:00;27.48;;;18.70;;
40781;SDS011;26493;51.938;7.626;2023-04-24T06:10:26;26.63;;;17.40;;
40781;SDS011;26493;51.938;7.626;2023-04-24T06:12:52;25.50;;;17.45;;
40781;SDS011;26493;51.938;7.626;2023-04-24T06:15:21;29.30;;;17.25;;
40781;SDS011;26493;51.938;7.626;2023-04-24T06:17:47;24.05;;;16.33;;
40781;SDS011;26493;51.938;7.626;2023-04-24T06:20:13;28.08;;;16.67;;
40781;SDS011;26493;51.938;7.626;2023-04-24T06:22:39;23.88;;;16.23;;
40781;SDS011;26493;51.938;7.626;2023-04-24T06:25:05;25.30;;;16.30;;
40781;SDS011;26493;51.938;7.626;2023-04-24T06:27:32;30.73;;;18.23;;
40781;SDS011;26493;51.938;7.626;2023-04-24T06:29:58;23.98;;;15.25;;
40781;SDS011;26493;51.938;7.626;2023-04-24T06:32:24;22.98;;;16.10;;
40781;SDS011;26493;51.938;7.626;2023-04-24T06:34:53;23.00;;;16.42;;
40781;SDS011;26493;51.938;7.626;2023-04-24T06:37:22;24.13;;;16.10;;
40781;SDS011;26493;51.938;7.626;2023-04-24T06:39:48;23.35;;;16.80;;
40781;SDS011;26493;51.938;7.626;2023-04-24T06:42:14;24.73;;;15.98;;
40781;SDS011;26493;51.938;7.626;2023-04-24T06:44:40;22.98;;;16.13;;
40781;SDS011;26493;51.938;7.626;2023-04-24T06:47:07;25.35;;;16.63;;
40781;SDS011;26493;51.938;7.626;2023-04-24T06:49:34;25.20;;;15.55;;
40781;SDS011;26493;51.938;7.626;2023-04-24T06:52:00;21.60;;;15.25;;
40781;SDS011;26493;51.938;7.626;2023-04-24T06:54:26;22.52;;;15.45;;
40781;SDS011;26493;51.938;7.626;2023-04-24T06:56:52;21.60;;;14.05;;
40781;SDS011;26493;51.938;7.626;2023-04-24T06:59:18;22.02;;;14.82;;
40781;SDS011;26493;51.938;7.626;2023-04-24T07:01:44;21.30;;;15.18;;
40781;SDS011;26493;51.938;7.626;2023-04-24T07:04:10;23.45;;;16.88;;
40781;SDS011;26493;51.938;7.626;2023-04-24T07:06:37;21.15;;;14.73;;
40781;SDS011;26493;51.938;7.626;2023-04-24T07:09:04;22.42;;;14.73;;
40781;SDS011;26493;51.938;7.626;2023-04-24T07:11:30;21.55;;;15.35;;
40781;SDS011;26493;51.938;7.626;2023-04-24T07:13:56;21.67;;;15.20;;
40781;SDS011;26493;51.938;7.626;2023-04-24T07:16:22;20.60;;;14.23;;
40781;SDS011;26493;51.938;7.626;2023-04-24T07:18:48;20.38;;;14.73;;
40781;SDS011;26493;51.938;7.626;2023-04-24T07:21:14;22.67;;;14.55;;
40781;SDS011;26493;51.938;7.626;2023-04-24T07:23:40;21.88;;;15.57;;
40781;SDS011;26493;51.938;7.626;2023-04-24T07:26:06;20.48;;;14.50;;
40781;SDS011;26493;51.938;7.626;2023-04-24T07:28:32;22.27;;;14.82;;
40781;SDS011;26493;51.938;7.626;2023-04-24T07:30:58;20.90;;;14.32;;
40781;SDS011;26493;51.938;7.626;2023-04-24T07:33:25;22.83;;;15.38;;
40781;SDS011;26493;51.938;7.626;2023-04-24T07:35:51;20.75;;;13.48;;
40781;SDS011;26493;51.938;7.626;2023-04-24T07:38:17;20.77;;;13.85;;
40781;SDS011;26493;51.938;7.626;2023-04-24T07:40:47;20.88;;;14.02;;
40781;SDS011;26493;51.938;7.626;2023-04-24T07:43:13;20.30;;;14.13;;
40781;SDS011;26493;51.938;7.626;2023-04-24T07:45:39;21.35;;;12.93;;
40781;SDS011;26493;51.938;7.626;2023-04-24T07:48:06;19.23;;;12.90;;
40781;SDS011;26493;51.938;7.626;2023-04-24T07:50:33;21.20;;;13.52;;
40781;SDS011;26493;51.938;7.626;2023-04-24T07:53:01;21.08;;;13.05;;
40781;SDS011;26493;51.938;7.626;2023-04-24T07:55:27;20.42;;;13.88;;
40781;SDS011;26493;51.938;7.626;2023-04-24T07:57:53;20.77;;;13.30;;
40781;SDS011;26493;51.938;7.626;2023-04-24T08:00:19;19.70;;;13.43;;
40781;SDS011;26493;51.938;7.626;2023-04-24T08:02:45;19.27;;;13.38;;
40781;SDS011;26493;51.938;7.626;2023-04-24T08:05:11;18.92;;;13.05;;
40781;SDS011;26493;51.938;7.626;2023-04-24T08:07:37;19.35;;;12.45;;
40781;SDS011;26493;51.938;7.626;2023-04-24T08:10:03;18.35;;;12.82;;
40781;SDS011;26493;51.938;7.626;2023-04-24T08:12:30;18.75;;;12.70;;
40781;SDS011;26493;51.938;7.626;2023-04-24T08:14:56;20.15;;;12.80;;
40781;SDS011;26493;51.938;7.626;2023-04-24T08:17:22;19.17;;;11.77;;
40781;SDS011;26493;51.938;7.626;2023-04-24T08:19:48;18.70;;;12.43;;
40781;SDS011;26493;51.938;7.626;2023-04-24T08:22:16;18.13;;;12.23;;
40781;SDS011;26493;51.938;7.626;2023-04-24T08:24:42;18.77;;;12.63;;
40781;SDS011;26493;51.938;7.626;2023-04-24T08:27:08;20.25;;;13.40;;
40781;SDS011;26493;51.938;7.626;2023-04-24T08:29:35;18.77;;;12.68;;
40781;SDS011;26493;51.938;7.626;2023-04-24T08:32:02;19.05;;;12.02;;
40781;SDS011;26493;51.938;7.626;2023-04-24T08:34:28;17.90;;;12.52;;
40781;SDS011;26493;51.938;7.626;2023-04-24T08:36:54;18.98;;;12.35;;
40781;SDS011;26493;51.938;7.626;2023-04-24T08:39:20;18.77;;;12.40;;
40781;SDS011;26493;51.938;7.626;2023-04-24T08:41:46;16.67;;;11.73;;
40781;SDS011;26493;51.938;7.626;2023-04-24T08:44:14;17.50;;;12.07;;
40781;SDS011;26493;51.938;7.626;2023-04-24T08:46:41;17.52;;;12.15;;
40781;SDS011;26493;51.938;7.626;2023-04-24T08:49:08;18.38;;;11.45;;
40781;SDS011;26493;51.938;7.626;2023-04-24T08:51:34;17.42;;;11.70;;
40781;SDS011;26493;51.938;7.626;2023-04-24T08:54:02;17.02;;;11.10;;
40781;SDS011;26493;51.938;7.626;2023-04-24T08:56:28;17.33;;;12.30;;
40781;SDS011;26493;51.938;7.626;2023-04-24T08:58:55;17.73;;;11.93;;
40781;SDS011;26493;51.938;7.626;2023-04-24T09:01:22;16.95;;;11.88;;
40781;SDS011;26493;51.938;7.626;2023-04-24T09:03:49;16.65;;;11.52;;
40781;SDS011;26493;51.938;7.626;2023-04-24T09:06:15;17.30;;;12.02;;
40781;SDS011;26493;51.938;7.626;2023-04-24T09:08:43;16.95;;;11.82;;
40781;SDS011;26493;51.938;7.626;2023-04-24T09:11:09;17.48;;;11.13;;
40781;SDS011;26493;51.938;7.626;2023-04-24T09:13:35;17.25;;;10.95;;
40781;SDS011;26493;51.938;7.626;2023-04-24T09:16:02;16.25;;;11.05;;
40781;SDS011;26493;51.938;7.626;2023-04-24T09:18:28;16.48;;;11.10;;
40781;SDS011;26493;51.938;7.626;2023-04-24T09:23:25;17.77;;;14.30;;
40781;SDS011;26493;51.938;7.626;2023-04-24T09:25:53;18.87;;;14.87;;
40781;SDS011;26493;51.938;7.626;2023-04-24T09:30:46;29.45;;;26.92;;
40781;SDS011;26493;51.938;7.626;2023-04-24T09:33:13;37.40;;;34.50;;
40781;SDS011;26493;51.938;7.626;2023-04-24T09:35:40;48.47;;;45.07;;
40781;SDS011;26493;51.938;7.626;2023-04-24T09:38:07;53.17;;;49.47;;
40781;SDS011;26493;51.938;7.626;2023-04-24T09:40:34;57.22;;;52.92;;
40781;SDS011;26493;51.938;7.626;2023-04-24T09:43:00;56.03;;;52.13;;
40781;SDS011;26493;51.938;7.626;2023-04-24T09:45:37;54.55;;;50.65;;
40781;SDS011;26493;51.938;7.626;2023-04-24T09:48:04;55.10;;;51.10;;
40781;SDS011;26493;51.938;7.626;2023-04-24T09:50:31;57.17;;;53.08;;
40781;SDS011;26493;51.938;7.626;2023-04-24T09:53:01;60.25;;;55.95;;
40781;SDS011;26493;51.938;7.626;2023-04-24T09:55:27;60.42;;;55.92;;
40781;SDS011;26493;51.938;7.626;2023-04-24T09:57:58;59.45;;;55.30;;
40781;SDS011;26493;51.938;7.626;2023-04-24T10:00:26;57.65;;;53.63;;
40781;SDS011;26493;51.938;7.626;2023-04-24T10:05:25;56.13;;;52.22;;
40781;SDS011;26493;51.938;7.626;2023-04-24T10:07:55;56.80;;;52.58;;
40781;SDS011;26493;51.938;7.626;2023-04-24T10:10:22;52.97;;;49.22;;
40781;SDS011;26493;51.938;7.626;2023-04-24T10:12:48;55.42;;;51.40;;
40781;SDS011;26493;51.938;7.626;2023-04-24T10:15:14;55.30;;;51.55;;
40781;SDS011;26493;51.938;7.626;2023-04-24T10:17:45;54.33;;;50.58;;
40781;SDS011;26493;51.938;7.626;2023-04-24T10:20:17;54.95;;;51.13;;
40781;SDS011;26493;51.938;7.626;2023-04-24T10:22:43;56.03;;;52.13;;
40781;SDS011;26493;51.938;7.626;2023-04-24T10:25:11;57.17;;;53.13;;
40781;SDS011;26493;51.938;7.626;2023-04-24T10:27:37;56.88;;;53.00;;
40781;SDS011;26493;51.938;7.626;2023-04-24T10:30:03;55.67;;;51.55;;
40781;SDS011;26493;51.938;7.626;2023-04-24T10:32:30;54.25;;;50.45;;
40781;SDS011;26493;51.938;7.626;2023-04-24T10:34:56;56.85;;;52.95;;
40781;SDS011;26493;51.938;7.626;2023-04-24T10:37:23;54.95;;;51.15;;
40781;SDS011;26493;51.938;7.626;2023-04-24T10:39:49;54.83;;;51.08;;
40781;SDS011;26493;51.938;7.626;2023-04-24T10:42:19;52.70;;;48.67;;
40781;SDS011;26493;51.938;7.626;2023-04-24T10:44:47;53.60;;;49.95;;
40781;SDS011;26493;51.938;7.626;2023-04-24T10:47:14;54.55;;;50.72;;
40781;SDS011;26493;51.938;7.626;2023-04-24T10:49:40;52.25;;;48.65;;
40781;SDS011;26493;51.938;7.626;2023-04-24T10:52:06;54.83;;;50.83;;
40781;SDS011;26493;51.938;7.626;2023-04-24T10:54:35;54.63;;;50.63;;
40781;SDS011;26493;51.938;7.626;2023-04-24T10:59:47;49.10;;;45.40;;
40781;SDS011;26493;51.938;7.626;2023-04-24T11:02:16;47.90;;;43.85;;
40781;SDS011;26493;51.938;7.626;2023-04-24T11:04:43;47.53;;;44.22;;
40781;SDS011;26493;51.938;7.626;2023-04-24T11:07:10;47.25;;;43.92;;
40781;SDS011;26493;51.938;7.626;2023-04-24T11:09:36;47.97;;;44.58;;
40781;SDS011;26493;51.938;7.626;2023-04-24T11:12:08;46.20;;;42.90;;
40781;SDS011;26493;51.938;7.626;2023-04-24T11:17:38;44.30;;;41.10;;
40781;SDS011;26493;51.938;7.626;2023-04-24T11:20:06;42.75;;;39.63;;
40781;SDS011;26493;51.938;7.626;2023-04-24T11:25:00;37.17;;;34.58;;
40781;SDS011;26493;51.938;7.626;2023-04-24T11:27:41;37.65;;;35.05;;
40781;SDS011;26493;51.938;7.626;2023-04-24T11:30:08;39.70;;;37.10;;
40781;SDS011;26493;51.938;7.626;2023-04-24T11:32:35;40.38;;;37.67;;
40781;SDS011;26493;51.938;7.626;2023-04-24T11:37:33;39.88;;;37.17;;
40781;SDS011;26493;51.938;7.626;2023-04-24T11:39:59;41.53;;;38.60;;
40781;SDS011;26493;51.938;7.626;2023-04-24T11:42:25;43.33;;;40.33;;
40781;SDS011;26493;51.938;7.626;2023-04-24T11:44:52;41.53;;;38.70;;
40781;SDS011;26493;51.938;7.626;2023-04-24T11:47:19;41.28;;;38.47;;
40781;SDS011;26493;51.938;7.626;2023-04-24T11:49:45;39.00;;;36.30;;
40781;SDS011;26493;51.938;7.626;2023-04-24T11:52:14;41.88;;;39.08;;
40781;SDS011;26493;51.938;7.626;2023-04-24T11:54:46;42.75;;;39.85;;
40781;SDS011;26493;51.938;7.626;2023-04-24T11:57:13;43.28;;;40.45;;
40781;SDS011;26493;51.938;7.626;2023-04-24T11:59:39;44.70;;;41.50;;
40781;SDS011;26493;51.938;7.626;2023-04-24T12:02:05;40.55;;;37.75;;
40781;SDS011;26493;51.938;7.626;2023-04-24T12:04:40;41.67;;;38.88;;
40781;SDS011;26493;51.938;7.626;2023-04-24T12:07:06;39.92;;;37.17;;
40781;SDS011;26493;51.938;7.626;2023-04-24T12:12:07;40.70;;;37.95;;
40781;SDS011;26493;51.938;7.626;2023-04-24T12:14:41;40.83;;;38.08;;
40781;SDS011;26493;51.938;7.626;2023-04-24T12:17:07;42.65;;;39.75;;
40781;SDS011;26493;51.938;7.626;2023-04-24T12:19:33;43.90;;;40.90;;
40781;SDS011;26493;51.938;7.626;2023-04-24T12:22:00;44.10;;;41.10;;
40781;SDS011;26493;51.938;7.626;2023-04-24T12:24:26;40.60;;;37.80;;
40781;SDS011;26493;51.938;7.626;2023-04-24T12:26:52;37.92;;;35.22;;
40781;SDS011;26493;51.938;7.626;2023-04-24T12:29:21;34.90;;;32.40;;
40781;SDS011;26493;51.938;7.626;2023-04-24T12:31:47;34.60;;;32.10;;
40781;SDS011;26493;51.938;7.626;2023-04-24T12:34:17;33.75;;;31.25;;
40781;SDS011;26493;51.938;7.626;2023-04-24T12:36:43;32.28;;;29.88;;
40781;SDS011;26493;51.938;7.626;2023-04-24T12:39:16;31.73;;;29.42;;
40781;SDS011;26493;51.938;7.626;2023-04-24T12:41:55;31.05;;;28.75;;
40781;SDS011;26493;51.938;7.626;2023-04-24T12:44:32;31.17;;;28.88;;
40781;SDS011;26493;51.938;7.626;2023-04-24T12:46:59;31.58;;;29.27;;
40781;SDS011;26493;51.938;7.626;2023-04-24T12:49:26;31.67;;;29.38;;
40781;SDS011;26493;51.938;7.626;2023-04-24T12:51:52;32.22;;;29.92;;
40781;SDS011;26493;51.938;7.626;2023-04-24T12:54:18;32.25;;;29.95;;
40781;SDS011;26493;51.938;7.626;2023-04-24T12:56:44;36.30;;;33.42;;
40781;SDS011;26493;51.938;7.626;2023-04-24T12:59:10;33.90;;;31.50;;
40781;SDS011;26493;51.938;7.626;2023-04-24T13:01:36;32.28;;;29.98;;
40781;SDS011;26493;51.938;7.626;2023-04-24T13:04:02;30.25;;;28.05;;
40781;SDS011;26493;51.938;7.626;2023-04-24T13:06:28;30.25;;;28.05;;
40781;SDS011;26493;51.938;7.626;2023-04-24T13:08:53;27.60;;;25.50;;
40781;SDS011;26493;51.938;7.626;2023-04-24T13:11:22;25.80;;;23.80;;
40781;SDS011;26493;51.938;7.626;2023-04-24T13:13:48;24.88;;;22.88;;
40781;SDS011;26493;51.938;7.626;2023-04-24T13:16:14;24.00;;;22.00;;
40781;SDS011;26493;51.938;7.626;2023-04-24T13:18:41;21.50;;;19.60;;
40781;SDS011;26493;51.938;7.626;2023-04-24T13:21:06;18.02;;;16.33;;
40781;SDS011;26493;51.938;7.626;2023-04-24T13:23:32;16.80;;;15.10;;
40781;SDS011;26493;51.938;7.626;2023-04-24T13:25:59;15.18;;;13.30;;
40781;SDS011;26493;51.938;7.626;2023-04-24T13:28:26;14.20;;;10.60;;
40781;SDS011;26493;51.938;7.626;2023-04-24T13:30:52;14.05;;;10.02;;
40781;SDS011;26493;51.938;7.626;2023-04-24T13:33:18;14.05;;;10.05;;
40781;SDS011;26493;51.938;7.626;2023-04-24T13:35:45;14.10;;;10.05;;
40781;SDS011;26493;51.938;7.626;2023-04-24T13:38:11;13.70;;;9.30;;
40781;SDS011;26493;51.938;7.626;2023-04-24T13:40:37;13.88;;;9.60;;
40781;SDS011;26493;51.938;7.626;2023-04-24T13:43:03;13.80;;;9.30;;
40781;SDS011;26493;51.938;7.626;2023-04-24T13:45:29;13.88;;;9.38;;
40781;SDS011;26493;51.938;7.626;2023-04-24T13:47:55;13.65;;;8.95;;
40781;SDS011;26493;51.938;7.626;2023-04-24T13:50:22;14.95;;;10.60;;
40781;SDS011;26493;51.938;7.626;2023-04-24T13:52:48;13.65;;;9.02;;
40781;SDS011;26493;51.938;7.626;2023-04-24T13:55:14;13.38;;;8.50;;
40781;SDS011;26493;51.938;7.626;2023-04-24T13:57:40;13.43;;;8.38;;
40781;SDS011;26493;51.938;7.626;2023-04-24T14:00:06;13.30;;;8.20;;
40781;SDS011;26493;51.938;7.626;2023-04-24T14:02:35;13.40;;;8.13;;
40781;SDS011;26493;51.938;7.626;2023-04-24T14:05:01;13.60;;;8.50;;
40781;SDS011;26493;51.938;7.626;2023-04-24T14:07:28;13.35;;;7.90;;
40781;SDS011;26493;51.938;7.626;2023-04-24T14:09:55;14.52;;;8.40;;
40781;SDS011;26493;51.938;7.626;2023-04-24T14:12:21;13.30;;;7.90;;
40781;SDS011;26493;51.938;7.626;2023-04-24T14:14:47;13.32;;;8.00;;
40781;SDS011;26493;51.938;7.626;2023-04-24T14:17:14;13.57;;;8.65;;
40781;SDS011;26493;51.938;7.626;2023-04-24T14:19:40;15.20;;;13.45;;
40781;SDS011;26493;51.938;7.626;2023-04-24T14:22:06;24.33;;;22.33;;
40781;SDS011;26493;51.938;7.626;2023-04-24T14:24:32;23.55;;;21.55;;
40781;SDS011;26493;51.938;7.626;2023-04-24T14:26:58;22.00;;;20.10;;
40781;SDS011;26493;51.938;7.626;2023-04-24T14:29:24;19.75;;;17.95;;
40781;SDS011;26493;51.938;7.626;2023-04-24T14:31:50;18.23;;;16.42;;
40781;SDS011;26493;51.938;7.626;2023-04-24T14:34:16;17.17;;;15.48;;
40781;SDS011;26493;51.938;7.626;2023-04-24T14:36:43;15.43;;;13.73;;
40781;SDS011;26493;51.938;7.626;2023-04-24T14:39:09;15.75;;;14.05;;
40781;SDS011;26493;51.938;7.626;2023-04-24T14:41:35;15.20;;;13.48;;
40781;SDS011;26493;51.938;7.626;2023-04-24T14:44:03;15.18;;;13.20;;